Time;durP1;ratioP1;P1;durP2;ratioP2;P2;SDS_P1;SDS_P2;PMS_P1;PMS_P2;Temp;Humidity;BMP_temperature;BMP_pressure;BME280_temperature;BME280_humidity;BME280_pressure;Samples;Min_cycle;Max_cycle;Signal;HPM_P1;HPM_P2
2022/06/13 00:01:39;;;;;;;3.40;2.55;;;21.40;72.90;;;;;;5009473;28;20212;-68
2022/06/13 00:04:07;;;;;;;4.97;2.67;;;21.40;73.50;;;;;;5008267;28;20215;-68
2022/06/13 00:06:35;;;;;;;4.13;2.70;;;21.40;73.70;;;;;;5013503;28;20213;-68
2022/06/13 00:09:04;;;;;;;3.33;2.70;;;21.40;73.80;;;;;;5009353;28;20231;-68
2022/06/13 00:11:31;;;;;;;4.72;2.83;;;21.40;74.30;;;;;;5002594;28;20218;-67
2022/06/13 00:13:58;;;;;;;4.40;3.33;;;21.40;74.80;;;;;;5000527;28;20211;-68
2022/06/13 00:16:25;;;;;;;3.75;3.33;;;21.50;75.90;;;;;;4998418;28;20204;-68
2022/06/13 00:18:52;;;;;;;6.95;3.53;;;21.50;76.60;;;;;;5011561;28;20218;-68
2022/06/13 00:21:21;;;;;;;4.97;3.40;;;21.40;77.40;;;;;;5008447;28;20199;-68
2022/06/13 00:23:50;;;;;;;6.32;3.40;;;21.50;78.30;;;;;;4993292;28;20661;-68
2022/06/13 00:26:21;;;;;;;3.95;3.60;;;21.50;78.80;;;;;;4995557;28;20732;-68
2022/06/13 00:28:48;;;;;;;5.00;3.35;;;21.40;79.10;;;;;;4992197;28;20626;-68
2022/06/13 00:31:15;;;;;;;5.28;3.10;;;21.50;79.50;;;;;;5004996;28;20230;-68
2022/06/13 00:33:41;;;;;;;5.18;3.30;;;21.50;79.90;;;;;;4997659;28;20212;-68
2022/06/13 00:36:08;;;;;;;4.43;2.78;;;21.50;79.80;;;;;;5012952;28;20220;-68
2022/06/13 00:38:36;;;;;;;4.05;2.90;;;21.40;79.10;;;;;;5013008;28;20633;-67
2022/06/13 00:41:07;;;;;;;3.33;3.03;;;20.80;79.70;;;;;;5009781;28;20550;-68
2022/06/13 00:43:38;;;;;;;3.63;3.30;;;21.40;78.30;;;;;;5004490;28;20579;-67
2022/06/13 00:46:17;;;;;;;4.25;3.25;;;21.30;80.80;;;;;;5012545;28;20222;-68
2022/06/13 00:48:44;;;;;;;8.98;3.67;;;21.30;78.80;;;;;;4999428;28;20743;-68
2022/06/13 00:51:11;;;;;;;5.80;3.70;;;21.20;79.20;;;;;;5005538;28;20294;-68
2022/06/13 00:53:38;;;;;;;4.32;3.67;;;21.20;79.90;;;;;;5009536;28;20569;-68
2022/06/13 00:56:10;;;;;;;6.43;4.15;;;21.00;81.50;;;;;;5012172;28;20302;-68
2022/06/13 00:58:41;;;;;;;7.80;4.45;;;20.90;84.60;;;;;;5012622;28;20211;-68
2022/06/13 01:01:08;;;;;;;9.73;5.05;;;20.70;87.70;;;;;;4998542;28;20195;-68
2022/06/13 01:03:36;;;;;;;10.25;4.80;;;20.60;90.10;;;;;;4996551;28;20219;-69
2022/06/13 01:06:06;;;;;;;9.35;4.60;;;20.50;91.20;;;;;;4996399;28;20479;-68
2022/06/13 01:08:36;;;;;;;8.70;4.32;;;20.40;92.30;;;;;;5002210;28;20212;-68
2022/06/13 01:11:17;;;;;;;7.22;4.90;;;20.30;93.30;;;;;;4991787;28;20206;-67
2022/06/13 01:14:14;;;;;;;6.95;4.70;;;20.20;94.30;;;;;;4993384;28;20208;-68
2022/06/13 01:16:55;;;;;;;9.32;4.90;;;20.10;95.60;;;;;;5008770;28;20204;-68
2022/06/13 01:19:53;;;;;;;7.40;4.75;;;20.10;96.90;;;;;;4992152;28;20207;-68
2022/06/13 01:22:57;;;;;;;9.32;4.95;;;20.00;99.30;;;;;;4994527;28;20629;-68
2022/06/13 01:25:58;;;;;;;6.80;4.60;;;19.90;99.90;;;;;;5010288;28;20199;-67
2022/06/13 01:28:51;;;;;;;8.90;4.70;;;19.90;99.90;;;;;;5002748;28;20677;-68
2022/06/13 01:31:28;;;;;;;6.75;4.55;;;19.80;99.90;;;;;;5015036;28;20265;-68
2022/06/13 01:34:05;;;;;;;6.60;3.97;;;19.70;99.90;;;;;;5008519;28;20211;-67
2022/06/13 01:36:42;;;;;;;4.50;3.47;;;19.60;99.90;;;;;;5009245;28;20207;-67
2022/06/13 01:39:23;;;;;;;6.32;3.50;;;19.50;99.90;;;;;;5016776;28;20560;-67
2022/06/13 01:42:04;;;;;;;9.25;3.83;;;19.30;99.90;;;;;;5010698;28;20656;-67
2022/06/13 01:44:39;;;;;;;6.13;3.22;;;19.20;99.90;;;;;;5002024;28;20296;-67
2022/06/13 01:47:12;;;;;;;7.43;3.60;;;19.10;99.90;;;;;;4997621;28;20750;-67
2022/06/13 01:49:57;;;;;;;5.47;3.40;;;19.00;99.90;;;;;;5011643;28;20216;-68
2022/06/13 01:52:41;;;;;;;12.13;3.70;;;19.00;99.90;;;;;;5000634;28;20195;-68
2022/06/13 01:55:17;;;;;;;9.23;3.78;;;18.90;99.90;;;;;;5004537;28;20568;-68
2022/06/13 01:57:49;;;;;;;6.55;3.50;;;18.80;99.90;;;;;;5015060;28;20207;-67
2022/06/13 02:00:18;;;;;;;6.40;3.58;;;18.80;99.90;;;;;;5009139;28;20211;-67
2022/06/13 02:02:52;;;;;;;5.13;3.22;;;18.70;99.90;;;;;;5003546;28;20214;-69
2022/06/13 02:05:26;;;;;;;7.22;3.47;;;18.70;99.90;;;;;;5015990;28;20207;-68
2022/06/13 02:07:57;;;;;;;5.68;3.20;;;18.70;99.90;;;;;;5000645;28;20212;-67
2022/06/13 02:10:29;;;;;;;6.70;3.50;;;18.60;99.90;;;;;;5007258;28;20591;-67
2022/06/13 02:13:07;;;;;;;4.07;3.28;;;18.50;99.90;;;;;;4995577;28;20215;-69
2022/06/13 02:15:38;;;;;;;4.70;3.30;;;18.40;99.90;;;;;;4999061;28;20235;-67
2022/06/13 02:18:10;;;;;;;6.20;3.42;;;18.30;99.90;;;;;;5011014;28;20207;-67
2022/06/13 02:20:40;;;;;;;8.50;3.17;;;18.30;99.90;;;;;;5000407;28;20200;-68
2022/06/13 02:23:11;;;;;;;5.63;3.70;;;18.20;99.90;;;;;;4996094;28;20212;-68
2022/06/13 02:25:43;;;;;;;4.07;3.15;;;18.20;99.90;;;;;;5002659;28;20210;-67
2022/06/13 02:28:17;;;;;;;7.05;3.50;;;18.10;99.90;;;;;;5015767;28;20576;-67
2022/06/13 02:30:47;;;;;;;5.93;3.30;;;18.10;99.90;;;;;;5003779;28;20251;-68
2022/06/13 02:33:21;;;;;;;6.13;3.13;;;18.10;99.90;;;;;;4995464;28;20204;-68
2022/06/13 02:35:53;;;;;;;5.80;3.42;;;18.00;99.90;;;;;;5002530;28;20218;-68
2022/06/13 02:38:25;;;;;;;6.75;3.38;;;18.00;99.90;;;;;;5014390;28;20203;-68
2022/06/13 02:40:56;;;;;;;6.30;3.37;;;18.00;99.90;;;;;;5007430;28;20215;-68
2022/06/13 02:43:27;;;;;;;4.00;3.30;;;18.00;99.90;;;;;;5001058;28;20211;-68
2022/06/13 02:45:56;;;;;;;10.90;4.07;;;18.00;99.90;;;;;;5001438;28;20306;-68
2022/06/13 02:48:32;;;;;;;6.63;3.63;;;17.90;99.90;;;;;;5015196;28;20218;-68
2022/06/13 02:51:06;;;;;;;9.98;3.85;;;17.90;99.90;;;;;;4995852;28;20219;-68
2022/06/13 02:53:37;;;;;;;5.40;3.85;;;17.90;99.90;;;;;;4997842;28;20577;-67
2022/06/13 02:56:11;;;;;;;6.97;3.75;;;17.90;99.90;;;;;;5013832;28;20207;-68
2022/06/13 02:58:48;;;;;;;5.85;3.72;;;17.80;99.90;;;;;;5011814;28;20214;-68
2022/06/13 03:01:22;;;;;;;5.57;3.60;;;17.80;99.90;;;;;;5006950;28;20196;-68
2022/06/13 03:04:01;;;;;;;5.47;3.50;;;17.70;99.90;;;;;;4995646;28;20221;-68
2022/06/13 03:06:42;;;;;;;6.38;3.88;;;17.70;99.90;;;;;;5002863;28;20203;-69
2022/06/13 03:09:15;;;;;;;6.32;4.00;;;17.70;99.90;;;;;;5001065;28;20212;-68
2022/06/13 03:11:49;;;;;;;6.33;3.60;;;17.60;99.90;;;;;;4998075;28;20311;-68
2022/06/13 03:14:38;;;;;;;5.13;3.47;;;17.70;99.90;;;;;;4997210;28;20243;-67
2022/06/13 03:17:15;;;;;;;5.70;4.07;;;17.70;99.90;;;;;;4995306;28;20224;-68
2022/06/13 03:19:49;;;;;;;7.63;4.57;;;17.60;99.90;;;;;;5007426;28;20290;-68
2022/06/13 03:22:19;;;;;;;4.93;3.50;;;17.70;99.90;;;;;;5006903;28;20676;-69
2022/06/13 03:24:51;;;;;;;7.57;4.38;;;17.70;99.90;;;;;;5009579;28;20568;-68
2022/06/13 03:27:24;;;;;;;5.68;3.63;;;17.80;99.90;;;;;;5015384;28;20196;-68
2022/06/13 03:29:57;;;;;;;6.70;3.60;;;17.80;99.90;;;;;;5001084;28;20231;-68
2022/06/13 03:32:28;;;;;;;6.27;3.23;;;17.80;99.90;;;;;;5000731;28;20699;-67
2022/06/13 03:35:01;;;;;;;9.57;3.83;;;17.80;99.90;;;;;;5008930;28;20286;-66
2022/06/13 03:37:33;;;;;;;5.63;3.20;;;17.80;99.90;;;;;;5005451;28;20205;-68
2022/06/13 03:40:05;;;;;;;8.40;5.32;;;17.80;99.90;;;;;;5001447;28;20281;-67
2022/06/13 03:42:42;;;;;;;3.75;3.22;;;17.80;99.90;;;;;;5000825;28;20199;-67
2022/06/13 03:45:16;;;;;;;8.45;4.15;;;17.80;99.90;;;;;;5001223;28;20203;-68
2022/06/13 03:47:46;;;;;;;8.13;3.95;;;17.80;99.90;;;;;;5011598;28;20210;-67
2022/06/13 03:50:21;;;;;;;6.13;4.00;;;17.80;99.90;;;;;;5012703;28;20239;-68
2022/06/13 03:52:52;;;;;;;6.25;3.80;;;17.90;99.90;;;;;;5002029;28;20217;-68
2022/06/13 03:55:23;;;;;;;5.43;3.97;;;17.90;99.90;;;;;;5001259;28;20226;-68
2022/06/13 03:57:55;;;;;;;8.38;3.90;;;17.90;99.90;;;;;;4993942;28;20234;-69
2022/06/13 04:00:27;;;;;;;5.53;3.83;;;18.00;99.90;;;;;;5004753;28;20208;-68
2022/06/13 04:02:55;;;;;;;5.97;4.13;;;18.00;99.90;;;;;;4998980;28;20227;-68
2022/06/13 04:05:30;;;;;;;8.55;4.25;;;18.10;99.90;;;;;;4996120;28;20215;-68
2022/06/13 04:07:59;;;;;;;7.40;4.55;;;18.20;99.90;;;;;;5000468;28;20199;-68
2022/06/13 04:10:26;;;;;;;8.10;5.20;;;18.20;99.90;;;;;;5012906;28;20569;-68
2022/06/13 04:13:09;;;;;;;8.55;4.57;;;18.30;99.90;;;;;;5009880;28;20200;-69
2022/06/13 04:15:56;;;;;;;7.93;4.30;;;18.30;99.90;;;;;;4998287;28;20320;-68
2022/06/13 04:18:35;;;;;;;8.07;4.70;;;18.30;99.90;;;;;;5011818;28;20209;-69
2022/06/13 04:21:14;;;;;;;5.47;4.23;;;18.30;99.90;;;;;;4997288;28;20214;-68
2022/06/13 04:23:48;;;;;;;9.25;5.07;;;18.40;99.90;;;;;;5007867;28;20205;-68
2022/06/13 04:26:21;;;;;;;8.10;4.75;;;18.40;99.90;;;;;;5012612;28;20218;-69
2022/06/13 04:28:56;;;;;;;6.57;4.90;;;18.40;99.90;;;;;;5013674;28;20261;-68
2022/06/13 04:31:25;;;;;;;6.97;4.78;;;18.50;99.90;;;;;;5009836;28;20692;-68
2022/06/13 04:33:55;;;;;;;7.50;4.63;;;18.40;99.90;;;;;;4999699;28;20612;-68
2022/06/13 04:36:24;;;;;;;8.00;4.95;;;18.40;99.90;;;;;;5000812;28;20212;-67
2022/06/13 04:38:55;;;;;;;7.80;5.25;;;18.40;99.90;;;;;;5010606;28;20215;-68
2022/06/13 04:41:25;;;;;;;7.00;5.10;;;18.50;99.90;;;;;;5013771;28;20211;-68
2022/06/13 04:43:55;;;;;;;6.68;4.95;;;18.40;99.90;;;;;;5007299;28;20207;-68
2022/06/13 04:46:25;;;;;;;6.32;5.47;;;18.50;99.90;;;;;;5012121;28;20199;-68
2022/06/13 04:48:54;;;;;;;6.32;5.35;;;18.60;99.90;;;;;;4996907;28;20236;-68
2022/06/13 04:51:28;;;;;;;7.55;5.10;;;18.60;99.90;;;;;;5014000;28;20237;-68
2022/06/13 04:54:00;;;;;;;11.90;5.18;;;18.60;99.90;;;;;;5008641;28;20233;-67
2022/06/13 04:56:27;;;;;;;9.63;5.97;;;18.70;99.90;;;;;;5013312;28;20210;-68
2022/06/13 04:58:56;;;;;;;6.25;5.28;;;18.70;99.90;;;;;;5016223;28;20568;-68
2022/06/13 05:01:26;;;;;;;7.60;5.32;;;18.80;99.90;;;;;;5000811;28;20207;-68
2022/06/13 05:03:55;;;;;;;8.45;5.60;;;18.80;99.90;;;;;;5010831;28;20218;-68
2022/06/13 05:06:30;;;;;;;7.50;5.95;;;18.90;99.90;;;;;;5004160;28;20211;-68
2022/06/13 05:09:00;;;;;;;7.68;6.43;;;19.00;99.90;;;;;;5016658;28;20199;-66
2022/06/13 05:11:29;;;;;;;10.77;7.07;;;19.00;99.90;;;;;;5016515;28;20222;-68
2022/06/13 05:14:00;;;;;;;8.77;6.13;;;19.00;99.90;;;;;;5004188;28;20208;-68
2022/06/13 05:16:39;;;;;;;7.05;6.10;;;19.00;99.90;;;;;;5002662;28;20211;-67
2022/06/13 05:19:25;;;;;;;6.63;5.72;;;19.10;99.90;;;;;;5016891;28;20601;-67
2022/06/13 05:22:00;;;;;;;11.88;5.68;;;19.10;99.90;;;;;;5010692;28;20215;-77
2022/06/13 05:24:48;;;;;;;10.45;6.35;;;19.30;99.90;;;;;;5001059;28;20567;-75
2022/06/13 05:27:15;;;;;;;8.25;6.93;;;19.40;99.90;;;;;;4998124;28;20204;-68
2022/06/13 05:29:42;;;;;;;9.23;6.60;;;19.50;99.90;;;;;;5003517;28;20227;-69
2022/06/13 05:32:10;;;;;;;10.65;7.20;;;19.60;99.90;;;;;;5011316;28;20219;-68
2022/06/13 05:34:41;;;;;;;10.55;7.75;;;19.70;99.90;;;;;;5015693;28;20245;-69
2022/06/13 05:37:13;;;;;;;10.63;7.18;;;19.70;99.90;;;;;;5000109;28;20226;-70
2022/06/13 05:39:40;;;;;;;8.48;7.35;;;19.80;99.90;;;;;;4995858;28;20583;-69
2022/06/13 05:42:08;;;;;;;9.32;8.40;;;19.80;99.90;;;;;;5011197;28;20212;-68
2022/06/13 05:44:34;;;;;;;11.10;7.53;;;19.70;99.90;;;;;;5004845;28;20590;-69
2022/06/13 05:47:02;;;;;;;8.95;7.60;;;19.70;99.90;;;;;;5014514;28;20211;-69
2022/06/13 05:49:29;;;;;;;15.52;8.30;;;19.70;99.90;;;;;;4995471;28;20211;-68
2022/06/13 05:51:56;;;;;;;9.52;8.10;;;19.70;99.90;;;;;;5007657;28;20565;-69
2022/06/13 05:54:24;;;;;;;9.48;8.45;;;19.70;99.90;;;;;;5009497;28;20273;-70
2022/06/13 05:56:51;;;;;;;8.70;7.80;;;19.70;99.90;;;;;;5005078;28;20212;-69
2022/06/13 05:59:17;;;;;;;10.75;8.27;;;19.70;99.90;;;;;;5013927;28;20211;-73
2022/06/13 06:01:44;;;;;;;9.60;7.80;;;19.70;99.90;;;;;;5007090;28;20212;-71
2022/06/13 06:04:11;;;;;;;13.73;7.85;;;19.70;99.90;;;;;;5005903;28;20219;-73
2022/06/13 06:06:38;;;;;;;8.60;7.40;;;19.70;99.90;;;;;;5005926;28;20206;-70
2022/06/13 06:09:06;;;;;;;8.75;7.45;;;19.60;99.90;;;;;;5011219;28;20212;-68
2022/06/13 06:11:36;;;;;;;12.50;8.77;;;19.60;99.90;;;;;;4996527;28;20224;-69
2022/06/13 06:14:02;;;;;;;8.65;7.53;;;19.60;99.90;;;;;;4998752;28;20251;-72
2022/06/13 06:16:30;;;;;;;7.82;7.03;;;19.60;99.90;;;;;;5008922;28;20673;-72
2022/06/13 06:18:56;;;;;;;9.77;7.57;;;19.60;99.90;;;;;;5000707;28;20273;-71
2022/06/13 06:21:24;;;;;;;9.90;7.82;;;19.60;99.90;;;;;;5001663;28;20217;-69
2022/06/13 06:23:52;;;;;;;8.50;7.63;;;19.60;99.90;;;;;;4994528;28;20262;-70
2022/06/13 06:26:21;;;;;;;10.43;7.40;;;19.70;99.90;;;;;;4997933;28;20215;-69
2022/06/13 06:28:50;;;;;;;9.32;6.88;;;19.70;99.90;;;;;;4995825;28;20231;-69
2022/06/13 06:31:18;;;;;;;8.73;7.60;;;19.70;99.90;;;;;;4995475;28;20251;-70
2022/06/13 06:33:45;;;;;;;11.57;7.40;;;19.80;99.90;;;;;;4995827;28;20215;-69
2022/06/13 06:36:13;;;;;;;9.13;7.20;;;19.90;99.90;;;;;;4995489;28;20328;-70
2022/06/13 06:38:41;;;;;;;7.88;7.03;;;20.00;99.90;;;;;;4997268;28;20498;-69
2022/06/13 06:41:08;;;;;;;9.45;7.05;;;20.10;99.90;;;;;;5000901;28;20212;-70
2022/06/13 06:43:34;;;;;;;10.70;6.82;;;20.20;99.90;;;;;;4997255;28;20216;-72
2022/06/13 06:46:03;;;;;;;12.15;7.60;;;20.40;99.90;;;;;;5010261;28;20203;-70
2022/06/13 06:48:29;;;;;;;8.70;6.60;;;20.50;99.90;;;;;;5005107;28;20208;-70
2022/06/13 06:50:57;;;;;;;7.75;6.53;;;20.70;99.90;;;;;;4996680;28;20235;-74
2022/06/13 06:53:25;;;;;;;7.32;6.57;;;20.90;99.90;;;;;;4998425;28;20304;-70
2022/06/13 07:01:23;;;;;;;6.95;5.47;;;21.20;99.90;;;;;;4997293;28;20781;-69
2022/06/13 07:03:50;;;;;;;6.15;5.10;;;21.40;99.90;;;;;;5003133;28;20222;-70
2022/06/13 07:06:17;;;;;;;8.70;5.97;;;21.50;99.90;;;;;;5002653;28;20295;-71
2022/06/13 07:08:44;;;;;;;5.38;4.88;;;21.60;99.90;;;;;;5003075;28;20649;-70
2022/06/13 07:14:01;;;;;;;5.07;4.40;;;21.80;99.90;;;;;;4997308;28;20319;-70
2022/06/13 07:16:30;;;;;;;5.55;4.50;;;21.80;99.90;;;;;;4998732;28;20208;-70
2022/06/13 07:18:57;;;;;;;5.00;4.43;;;22.00;99.90;;;;;;4996397;28;20207;-71
2022/06/13 07:21:24;;;;;;;5.50;4.05;;;22.10;99.90;;;;;;5000973;28;20212;-70
2022/06/13 07:23:51;;;;;;;6.03;4.35;;;22.20;99.90;;;;;;4995886;28;20641;-70
2022/06/13 07:26:18;;;;;;;6.40;4.68;;;22.20;99.90;;;;;;5004637;28;20214;-70
2022/06/13 07:28:45;;;;;;;6.40;3.78;;;22.20;99.90;;;;;;5010570;28;20224;-70
2022/06/13 07:31:18;;;;;;;5.68;4.10;;;22.20;99.90;;;;;;4995926;28;20230;-70
2022/06/13 07:33:47;;;;;;;3.63;3.33;;;22.30;99.90;;;;;;5009263;28;20195;-71
2022/06/13 07:36:14;;;;;;;3.67;3.17;;;22.40;99.90;;;;;;5002521;28;20204;-70
2022/06/13 07:38:41;;;;;;;6.93;3.80;;;22.40;99.90;;;;;;5001471;28;20212;-71
2022/06/13 07:41:12;;;;;;;4.28;3.53;;;22.40;99.90;;;;;;5006184;28;20203;-70
2022/06/13 07:43:39;;;;;;;4.65;4.15;;;22.50;99.90;;;;;;5015831;28;20217;-71
2022/06/13 07:46:08;;;;;;;5.05;3.00;;;22.60;99.90;;;;;;5015880;28;20207;-71
2022/06/13 07:48:35;;;;;;;4.80;3.35;;;22.60;99.90;;;;;;5010894;28;20274;-71
2022/06/13 07:51:05;;;;;;;6.38;3.38;;;22.70;99.90;;;;;;4995854;28;20250;-71
2022/06/13 07:53:32;;;;;;;4.03;3.15;;;22.70;99.90;;;;;;5009157;28;20557;-71
2022/06/13 07:55:59;;;;;;;6.07;3.40;;;22.70;99.90;;;;;;5013089;28;20211;-70
2022/06/13 07:58:31;;;;;;;7.53;2.85;;;22.70;99.90;;;;;;5015012;28;20208;-70
2022/06/13 08:00:58;;;;;;;4.05;3.15;;;22.80;99.90;;;;;;5002273;28;20244;-70
2022/06/13 08:03:28;;;;;;;4.40;3.17;;;22.90;99.90;;;;;;5006843;28;20213;-69
2022/06/13 08:05:59;;;;;;;4.20;2.80;;;23.00;99.90;;;;;;5015393;28;20221;-70
2022/06/13 08:08:28;;;;;;;4.03;2.55;;;23.00;99.90;;;;;;5007574;28;20208;-70
2022/06/13 08:10:58;;;;;;;2.78;2.53;;;23.10;99.90;;;;;;5010649;28;20218;-70
2022/06/13 08:13:26;;;;;;;4.85;2.83;;;22.90;99.90;;;;;;5010330;28;20265;-71
2022/06/13 08:15:53;;;;;;;4.47;2.60;;;22.90;99.90;;;;;;5003175;28;20246;-70
2022/06/13 08:18:20;;;;;;;3.00;2.70;;;22.80;99.90;;;;;;5000392;28;20624;-70
2022/06/13 08:20:47;;;;;;;7.75;2.50;;;22.70;99.90;;;;;;5015423;28;20606;-70
2022/06/13 08:23:17;;;;;;;3.15;2.60;;;22.60;99.90;;;;;;5001566;28;20227;-70
2022/06/13 08:25:45;;;;;;;2.65;2.15;;;22.50;99.90;;;;;;5007969;28;20212;-70
2022/06/13 08:28:13;;;;;;;2.67;2.08;;;22.60;99.90;;;;;;5007620;28;20255;-70
2022/06/13 08:30:45;;;;;;;2.85;2.22;;;22.60;99.90;;;;;;5012187;28;20663;-70
2022/06/13 08:33:13;;;;;;;2.05;1.80;;;22.70;99.90;;;;;;5003734;28;20208;-71
2022/06/13 08:35:40;;;;;;;2.28;1.52;;;22.60;99.90;;;;;;4996928;28;20212;-71
2022/06/13 08:38:07;;;;;;;1.83;1.50;;;22.60;99.90;;;;;;5014770;28;20218;-70
2022/06/13 08:40:46;;;;;;;1.90;1.80;;;22.50;99.90;;;;;;4997115;28;20200;-70
2022/06/13 08:43:51;;;;;;;2.33;2.13;;;22.50;99.90;;;;;;4995428;28;20643;-70
2022/06/13 08:46:26;;;;;;;3.30;2.30;;;22.50;99.90;;;;;;4972892;28;20582;-70
2022/06/13 08:49:02;;;;;;;2.20;2.00;;;22.50;99.90;;;;;;4999843;28;20295;-70
2022/06/13 08:51:37;;;;;;;3.72;2.40;;;22.40;99.90;;;;;;5006601;28;20219;-70
2022/06/13 08:54:08;;;;;;;2.53;2.20;;;22.40;99.90;;;;;;5002285;28;20215;-69
2022/06/13 08:56:37;;;;;;;3.72;2.58;;;22.40;99.90;;;;;;5001864;28;20203;-71
2022/06/13 08:59:23;;;;;;;2.70;2.50;;;22.30;99.90;;;;;;5011681;28;20211;-72
2022/06/13 09:01:56;;;;;;;2.80;2.55;;;22.30;99.90;;;;;;4999769;28;20204;-70
2022/06/13 09:04:27;;;;;;;3.53;3.10;;;22.30;99.90;;;;;;5012043;28;20203;-70
2022/06/13 09:07:10;;;;;;;4.28;3.40;;;22.30;99.90;;;;;;5002227;28;20588;-70
2022/06/13 09:09:46;;;;;;;3.45;3.15;;;22.30;99.90;;;;;;5013083;28;20222;-71
2022/06/13 09:12:18;;;;;;;2.80;2.55;;;22.20;99.90;;;;;;5014239;28;20214;-71
2022/06/13 09:14:51;;;;;;;3.20;2.90;;;22.10;99.90;;;;;;5011261;28;20239;-70
2022/06/13 09:17:22;;;;;;;3.25;3.03;;;22.10;99.90;;;;;;5003178;28;20211;-71
2022/06/13 09:19:55;;;;;;;3.13;2.83;;;22.00;99.90;;;;;;5014488;28;20211;-70
2022/06/13 09:22:29;;;;;;;3.60;3.08;;;22.10;99.90;;;;;;5013841;28;20206;-71
2022/06/13 09:25:03;;;;;;;3.97;3.15;;;22.10;99.90;;;;;;5012043;28;20207;-71
2022/06/13 09:27:34;;;;;;;2.95;2.63;;;22.00;99.90;;;;;;5003206;28;20205;-72
2022/06/13 09:30:07;;;;;;;4.97;2.97;;;22.00;99.90;;;;;;5000157;28;20314;-71
2022/06/13 09:32:41;;;;;;;3.40;2.90;;;21.90;99.90;;;;;;5013492;28;20219;-72
2022/06/13 09:35:16;;;;;;;4.20;3.20;;;21.90;99.90;;;;;;4999616;28;20204;-73
2022/06/13 09:37:48;;;;;;;4.43;3.03;;;21.90;99.90;;;;;;5007773;28;20233;-72
2022/06/13 09:40:18;;;;;;;3.15;2.67;;;21.80;99.90;;;;;;5012685;28;20273;-72
2022/06/13 09:43:02;;;;;;;4.38;3.35;;;21.80;99.90;;;;;;4994526;28;20212;-70
2022/06/13 09:45:47;;;;;;;4.15;3.30;;;21.80;99.90;;;;;;4996286;28;20631;-71
2022/06/13 09:48:26;;;;;;;3.80;3.10;;;21.80;99.90;;;;;;5008046;28;20561;-71
2022/06/13 09:51:03;;;;;;;4.28;3.10;;;21.80;99.90;;;;;;5005436;28;20207;-70
2022/06/13 09:53:36;;;;;;;3.90;3.10;;;21.70;99.90;;;;;;4998850;28;20223;-70
2022/06/13 09:56:09;;;;;;;3.25;2.65;;;21.70;99.90;;;;;;5000900;28;20214;-68
2022/06/13 09:58:51;;;;;;;3.05;2.75;;;21.70;99.90;;;;;;4995571;28;20671;-69
2022/06/13 10:01:26;;;;;;;3.15;2.55;;;21.70;99.90;;;;;;4994476;28;20199;-69
2022/06/13 10:04:00;;;;;;;4.07;2.90;;;21.70;99.90;;;;;;5001800;28;20457;-69
2022/06/13 10:06:33;;;;;;;3.40;3.10;;;21.70;99.90;;;;;;5001875;28;20242;-69
2022/06/13 10:09:12;;;;;;;3.55;2.95;;;21.70;99.90;;;;;;4997599;28;20204;-69
2022/06/13 10:11:48;;;;;;;4.15;2.83;;;21.70;99.90;;;;;;4995101;28;20231;-70
2022/06/13 10:14:39;;;;;;;3.22;2.90;;;21.60;99.90;;;;;;5005785;28;20288;-69
2022/06/13 10:17:17;;;;;;;3.13;2.70;;;21.60;99.90;;;;;;5000073;28;20601;-69
2022/06/13 10:19:56;;;;;;;5.18;3.10;;;21.60;99.90;;;;;;5015294;28;20238;-70
2022/06/13 10:22:32;;;;;;;3.35;3.05;;;21.60;99.90;;;;;;5002945;28;20652;-69
2022/06/13 10:25:08;;;;;;;3.38;2.70;;;21.60;99.90;;;;;;4995842;28;20214;-70
2022/06/13 10:27:45;;;;;;;4.43;2.63;;;21.60;99.90;;;;;;5006611;28;20195;-69
2022/06/13 10:30:26;;;;;;;4.00;2.38;;;21.50;99.90;;;;;;5005521;28;20234;-69
2022/06/13 10:33:10;;;;;;;3.92;2.25;;;21.40;99.90;;;;;;5003791;28;20216;-70
2022/06/13 10:35:48;;;;;;;5.45;2.30;;;21.40;99.90;;;;;;5009372;28;20660;-70
2022/06/13 10:38:31;;;;;;;3.08;2.20;;;21.30;99.90;;;;;;5007962;28;20215;-70
2022/06/13 10:40:58;;;;;;;4.03;2.42;;;21.30;99.90;;;;;;5004202;28;20570;-69
2022/06/13 10:43:26;;;;;;;5.03;2.50;;;21.20;99.90;;;;;;5016109;28;20213;-68
2022/06/13 10:45:53;;;;;;;5.05;2.58;;;21.20;99.90;;;;;;5000006;28;20230;-71
2022/06/13 10:48:24;;;;;;;3.97;2.47;;;21.30;99.90;;;;;;5002239;28;20216;-72
2022/06/13 10:50:55;;;;;;;3.17;2.13;;;21.40;99.90;;;;;;5011169;28;20579;-71
2022/06/13 10:53:26;;;;;;;4.65;2.70;;;21.50;99.90;;;;;;4997999;28;20216;-71
2022/06/13 10:55:56;;;;;;;7.63;2.65;;;21.50;99.90;;;;;;5005283;28;20282;-71
2022/06/13 10:58:26;;;;;;;3.83;2.92;;;21.60;99.90;;;;;;5008996;28;20217;-71
2022/06/13 11:01:09;;;;;;;3.53;2.72;;;21.70;99.90;;;;;;5017696;28;20203;-72
2022/06/13 11:03:36;;;;;;;4.55;2.70;;;21.80;99.90;;;;;;5009006;28;20234;-71
2022/06/13 11:06:08;;;;;;;3.35;2.58;;;21.80;99.90;;;;;;5015944;28;20208;-74
2022/06/13 11:08:35;;;;;;;2.97;2.72;;;21.90;99.90;;;;;;5009108;28;20790;-74
2022/06/13 11:11:04;;;;;;;2.70;2.50;;;22.00;99.90;;;;;;5003056;28;20237;-72
2022/06/13 11:13:34;;;;;;;3.63;2.42;;;22.00;99.90;;;;;;5009835;28;20226;-72
2022/06/13 11:24:41;;;;;;;1.88;1.77;;;22.10;99.90;;;;;;5017191;28;20693;-72
2022/06/13 11:30:44;;;;;;;3.08;2.03;;;22.20;99.90;;;;;;4999119;28;20238;-72
2022/06/13 11:33:29;;;;;;;2.33;2.10;;;22.10;99.90;;;;;;4995933;28;20596;-73
2022/06/13 11:35:59;;;;;;;3.95;1.85;;;22.00;99.90;;;;;;4997271;28;20211;-73
2022/06/13 11:38:30;;;;;;;4.05;2.42;;;22.00;99.90;;;;;;5006154;28;20207;-72
2022/06/13 11:41:02;;;;;;;4.20;2.10;;;22.00;99.90;;;;;;5003593;28;20208;-73
2022/06/13 11:43:44;;;;;;;3.40;2.75;;;22.00;99.90;;;;;;4999784;28;20211;-72
2022/06/13 11:46:31;;;;;;;2.95;2.28;;;22.10;99.90;;;;;;5010528;28;20265;-72
2022/06/13 11:49:02;;;;;;;3.45;2.45;;;22.30;99.90;;;;;;5001116;28;20210;-71
2022/06/13 11:51:36;;;;;;;3.42;2.65;;;22.50;99.90;;;;;;5005624;28;20297;-72
2022/06/13 11:54:05;;;;;;;4.75;2.40;;;22.70;99.90;;;;;;5003647;28;20579;-73
2022/06/13 11:56:34;;;;;;;5.32;2.72;;;22.80;99.90;;;;;;5001614;28;20214;-71
2022/06/13 11:59:04;;;;;;;2.90;2.53;;;22.70;99.90;;;;;;5003323;28;20211;-70
2022/06/13 12:01:34;;;;;;;3.03;2.70;;;22.60;99.90;;;;;;5001106;28;20668;-73
2022/06/13 12:04:16;;;;;;;4.93;2.28;;;22.40;99.90;;;;;;4996391;28;20258;-73
2022/06/13 12:06:47;;;;;;;4.22;2.22;;;22.30;99.90;;;;;;5001641;28;20648;-73
2022/06/13 12:09:21;;;;;;;2.42;2.20;;;22.10;99.90;;;;;;5002909;28;20204;-73
2022/06/13 12:11:54;;;;;;;3.33;2.20;;;22.00;99.90;;;;;;5001595;28;20215;-74
2022/06/13 12:14:21;;;;;;;2.75;2.10;;;21.80;99.90;;;;;;4996998;28;20243;-74
2022/06/13 12:16:58;;;;;;;4.63;2.47;;;21.70;99.90;;;;;;5001375;28;20215;-74
2022/06/13 12:19:34;;;;;;;4.70;3.42;;;21.60;99.90;;;;;;4997283;28;20215;-74
2022/06/13 12:22:08;;;;;;;8.18;4.35;;;21.40;99.90;;;;;;4998198;28;20204;-74
2022/06/13 12:24:46;;;;;;;5.30;2.97;;;21.30;99.90;;;;;;5002166;28;20218;-75
2022/06/13 12:27:21;;;;;;;5.65;3.13;;;21.00;99.90;;;;;;4996599;28;20204;-73
2022/06/13 12:30:05;;;;;;;4.53;2.40;;;20.80;99.90;;;;;;4996850;28;20231;-74
2022/06/13 12:32:36;;;;;;;2.60;2.10;;;20.60;99.90;;;;;;5001543;28;20307;-73
2022/06/13 12:35:29;;;;;;;7.15;1.90;;;20.30;99.90;;;;;;5005355;28;20625;-74
2022/06/13 12:38:04;;;;;;;1.38;1.27;;;20.10;99.90;;;;;;5001979;28;20676;-75
2022/06/13 12:40:42;;;;;;;1.80;1.05;;;19.80;99.90;;;;;;4997243;28;20704;-75
2022/06/13 12:43:38;;;;;;;2.90;1.88;;;19.50;99.90;;;;;;4997472;28;20207;-76
2022/06/13 12:46:28;;;;;;;3.80;1.50;;;19.30;99.90;;;;;;4976030;28;20254;-76
2022/06/13 12:49:07;;;;;;;2.53;1.23;;;19.00;99.90;;;;;;4999401;28;20208;-75
2022/06/13 12:51:44;;;;;;;7.55;2.80;;;18.80;99.90;;;;;;4999041;28;20211;-76
2022/06/13 12:54:47;;;;;;;2.10;1.20;;;18.60;99.90;;;;;;4997644;28;20656;-75
2022/06/13 12:57:30;;;;;;;4.03;1.30;;;18.40;99.90;;;;;;5004528;28;20202;-76
2022/06/13 13:00:06;;;;;;;14.13;6.15;;;18.20;99.90;;;;;;5002253;28;20451;-75
2022/06/13 13:02:40;;;;;;;6.15;2.15;;;18.10;99.90;;;;;;4996153;28;20928;-74
2022/06/13 13:05:19;;;;;;;13.40;4.63;;;17.80;99.90;;;;;;5003797;28;20309;-75
2022/06/13 13:08:00;;;;;;;4.95;1.90;;;17.60;99.90;;;;;;5008554;28;20199;-75
2022/06/13 13:10:37;;;;;;;4.97;2.47;;;17.50;99.90;;;;;;5000185;28;20207;-74
2022/06/13 13:13:24;;;;;;;12.60;5.10;;;17.40;99.90;;;;;;4999056;28;20231;-75
2022/06/13 13:15:59;;;;;;;10.63;4.67;;;17.20;99.90;;;;;;4996408;28;20359;-75
2022/06/13 13:18:42;;;;;;;21.13;6.03;;;17.00;99.90;;;;;;4996921;28;20444;-76
2022/06/13 13:21:17;;;;;;;21.37;7.33;;;16.90;99.90;;;;;;5005452;28;20199;-75
2022/06/13 13:23:55;;;;;;;16.37;6.10;;;16.80;99.90;;;;;;5001080;28;20611;-75
2022/06/13 13:26:34;;;;;;;4.80;1.97;;;16.80;99.90;;;;;;5002082;28;20580;-73
2022/06/13 13:29:15;;;;;;;4.20;2.63;;;16.80;99.90;;;;;;5004121;28;20227;-74
2022/06/13 13:31:48;;;;;;;10.50;2.27;;;16.70;99.90;;;;;;5000700;28;20216;-73
2022/06/13 13:34:34;;;;;;;4.60;1.87;;;16.70;99.90;;;;;;5002439;28;20306;-73
2022/06/13 13:37:16;;;;;;;2.77;1.60;;;16.70;99.90;;;;;;5006219;28;20208;-73